Time;durP1;ratioP1;P1;durP2;ratioP2;P2;SDS_P1;SDS_P2;PMS_P1;PMS_P2;Temp;Humidity;BMP_temperature;BMP_pressure;BME280_temperature;BME280_humidity;BME280_pressure;Samples;Min_cycle;Max_cycle;Signal;HPM_P1;HPM_P2
2023/03/16 06:42:23;;;;;;;5.63;3.47;;;;;;;;;;5130991;27;20270;-78
2023/03/16 06:49:03;;;;;;;4.43;3.20;;;;;;;;;;5134441;27;20275;-78
2023/03/16 06:53:05;;;;;;;7.13;3.67;;;;;;;;;;5134182;27;20271;-78
2023/03/16 06:56:51;;;;;;;7.03;3.90;;;;;;;;;;5134537;27;20268;-78
2023/03/16 06:59:17;;;;;;;4.93;3.43;;;;;;;;;;5115518;28;20416;-78
2023/03/16 07:01:43;;;;;;;8.30;3.37;;;;;;;;;;5135043;28;20757;-79
2023/03/16 07:04:11;;;;;;;9.33;3.87;;;;;;;;;;5135890;28;20448;-79
2023/03/16 07:06:37;;;;;;;7.93;4.20;;;;;;;;;;5135614;28;20463;-80
2023/03/16 07:09:04;;;;;;;5.10;3.97;;;;;;;;;;5135782;28;20441;-79
2023/03/16 07:11:31;;;;;;;7.67;3.60;;;;;;;;;;5137174;27;20408;-79
2023/03/16 07:13:57;;;;;;;5.37;3.67;;;;;;;;;;5134529;28;20420;-80
2023/03/16 07:16:23;;;;;;;5.17;3.63;;;;;;;;;;5134750;28;20431;-79
2023/03/16 07:18:51;;;;;;;6.90;4.17;;;;;;;;;;5135622;28;20409;-79
2023/03/16 07:21:17;;;;;;;5.57;3.57;;;;;;;;;;5136123;28;20532;-80
2023/03/16 07:23:43;;;;;;;5.20;3.00;;;;;;;;;;5136172;28;20442;-79
2023/03/16 07:26:10;;;;;;;4.07;3.67;;;;;;;;;;5136020;28;20486;-79
2023/03/16 07:28:37;;;;;;;4.47;3.60;;;;;;;;;;5136182;28;20405;-79
2023/03/16 07:31:03;;;;;;;5.90;3.93;;;1.10;99.90;;;;;;5136494;28;20482;-80
2023/03/16 07:33:31;;;;;;;5.60;3.40;;;1.10;99.90;;;;;;5136016;28;20180;-79
2023/03/16 07:35:57;;;;;;;6.83;3.50;;;;;;;;;;5136750;28;20278;-79
2023/03/16 07:38:23;;;;;;;5.17;3.03;;;;;;;;;;5137833;28;20416;-79
2023/03/16 07:40:51;;;;;;;6.77;3.07;;;;;;;;;;5136525;28;20191;-80
2023/03/16 07:43:17;;;;;;;3.90;2.90;;;3.40;99.90;;;;;;5136108;28;20181;-80
2023/03/16 07:45:47;;;;;;;4.00;3.07;;;4.40;99.90;;;;;;5135800;28;20567;-80
2023/03/16 07:48:13;;;;;;;6.07;3.20;;;5.30;99.90;;;;;;5137379;27;20199;-80
2023/03/16 07:50:38;;;;;;;2.90;2.57;;;5.90;99.90;;;;;;5136800;27;20191;-80
2023/03/16 07:53:04;;;;;;;4.10;2.67;;;6.40;99.90;;;;;;5135721;28;20560;-80
2023/03/16 07:55:30;;;;;;;3.53;2.80;;;6.40;99.90;;;;;;5136822;27;20565;-80
2023/03/16 07:57:56;;;;;;;5.47;3.33;;;6.50;99.90;;;;;;5136635;27;20166;-80
2023/03/16 08:00:22;;;;;;;3.60;2.83;;;7.00;99.90;;;;;;5137997;27;20194;-79
2023/03/16 08:02:50;;;;;;;5.77;3.13;;;7.10;99.90;;;;;;5135696;28;20242;-80
2023/03/16 08:05:16;;;;;;;4.10;2.53;;;7.30;99.90;;;;;;5135394;28;20222;-80
2023/03/16 08:07:42;;;;;;;5.40;2.80;;;7.90;99.90;;;;;;5128504;28;20176;-79
2023/03/16 08:10:08;;;;;;;2.80;2.40;;;8.50;99.90;;;;;;5129447;28;20192;-80
2023/03/16 08:12:34;;;;;;;5.03;2.53;;;8.90;99.90;;;;;;5124302;28;20171;-79
2023/03/16 08:14:59;;;;;;;4.13;2.70;;;9.30;99.90;;;;;;5124782;28;20175;-80
2023/03/16 08:17:25;;;;;;;4.13;3.07;;;8.90;99.90;;;;;;5122960;28;20175;-80
2023/03/16 08:19:51;;;;;;;3.60;2.30;;;9.10;99.90;;;;;;5124133;28;20221;-79
2023/03/16 08:22:17;;;;;;;4.03;2.10;;;9.70;99.90;;;;;;5122524;28;20593;-80
2023/03/16 08:24:43;;;;;;;3.77;2.10;;;10.00;98.90;;;;;;5124214;28;20227;-80
2023/03/16 08:27:09;;;;;;;3.77;2.00;;;9.80;97.40;;;;;;5124270;28;20168;-80
2023/03/16 08:29:36;;;;;;;4.37;2.50;;;9.20;98.10;;;;;;5122838;28;20195;-80
2023/03/16 08:32:02;;;;;;;2.67;2.30;;;9.60;98.80;;;;;;5122371;28;20180;-80
2023/03/16 08:34:29;;;;;;;2.93;2.20;;;10.30;99.90;;;;;;5122687;28;20206;-80
2023/03/16 08:36:54;;;;;;;3.67;2.23;;;10.40;98.90;;;;;;5123141;28;20201;-80
2023/03/16 08:39:20;;;;;;;3.10;2.23;;;10.30;98.90;;;;;;5122437;28;20176;-80
2023/03/16 08:41:47;;;;;;;3.60;2.30;;;10.20;99.10;;;;;;5121824;28;20656;-80
2023/03/16 08:44:13;;;;;;;2.97;2.40;;;10.30;99.90;;;;;;5123303;28;20641;-79
2023/03/16 08:46:39;;;;;;;3.77;1.87;;;10.60;98.70;;;;;;5121696;28;20585;-80
2023/03/16 08:49:05;;;;;;;3.47;1.90;;;10.70;98.50;;;;;;5121573;28;20177;-80
2023/03/16 08:51:32;;;;;;;6.53;1.97;;;10.60;96.20;;;;;;5123302;27;20175;-79
2023/03/16 08:53:58;;;;;;;2.10;1.80;;;10.70;95.10;;;;;;5121840;28;20183;-80
2023/03/16 08:56:24;;;;;;;2.07;1.50;;;10.50;92.40;;;;;;5121493;28;20566;-80
2023/03/16 08:58:50;;;;;;;2.53;1.97;;;10.30;93.70;;;;;;5122488;28;20184;-80
2023/03/16 09:01:18;;;;;;;2.87;2.17;;;10.60;97.00;;;;;;5122941;28;20193;-80
2023/03/16 09:03:45;;;;;;;3.13;1.90;;;10.60;98.10;;;;;;5122763;28;20170;-80
2023/03/16 09:06:12;;;;;;;2.03;1.77;;;10.60;96.90;;;;;;5121116;28;20204;-80
2023/03/16 09:08:38;;;;;;;3.23;1.83;;;10.90;96.20;;;;;;5121849;28;20699;-80
2023/03/16 09:11:11;;;;;;;3.07;1.47;;;11.10;94.90;;;;;;5122685;28;20190;-80
2023/03/16 09:13:38;;;;;;;2.60;1.80;;;10.60;94.30;;;;;;5122705;28;20156;-79
2023/03/16 09:16:04;;;;;;;3.87;1.83;;;10.60;94.40;;;;;;5122100;28;20198;-80
2023/03/16 09:18:31;;;;;;;2.53;1.97;;;10.60;94.10;;;;;;5121782;28;20175;-80
2023/03/16 09:21:02;;;;;;;2.17;1.60;;;10.80;95.70;;;;;;5121521;28;20198;-81
2023/03/16 09:23:29;;;;;;;3.43;1.83;;;10.90;94.20;;;;;;5122875;28;20173;-80
2023/03/16 09:26:00;;;;;;;3.83;2.10;;;11.10;94.60;;;;;;5123843;28;20177;-80
2023/03/16 09:28:26;;;;;;;3.77;2.07;;;11.30;97.20;;;;;;5122051;28;20545;-80
2023/03/16 09:30:53;;;;;;;2.60;1.80;;;11.20;96.90;;;;;;5120945;28;20195;-80
2023/03/16 09:33:23;;;;;;;5.40;1.50;;;11.10;91.20;;;;;;5118405;28;20179;-80
2023/03/16 09:35:50;;;;;;;6.00;1.90;;;11.20;93.10;;;;;;5119915;28;20221;-81
2023/03/16 09:38:17;;;;;;;1.77;1.50;;;11.20;94.70;;;;;;5120537;28;20179;-80
2023/03/16 09:40:44;;;;;;;3.03;1.33;;;11.30;90.50;;;;;;5120997;28;20191;-81
2023/03/16 09:43:12;;;;;;;2.13;1.60;;;11.00;92.20;;;;;;5121862;28;20178;-80
2023/03/16 09:45:46;;;;;;;1.63;1.40;;;10.90;91.10;;;;;;5122780;28;20222;-80
2023/03/16 09:48:15;;;;;;;3.37;1.60;;;10.50;91.80;;;;;;5124547;28;20171;-80
2023/03/16 09:50:42;;;;;;;3.27;1.20;;;10.60;92.10;;;;;;5128890;28;20207;-80
2023/03/16 09:53:23;;;;;;;1.43;1.33;;;10.80;90.90;;;;;;5125275;28;20244;-80
2023/03/16 09:56:26;;;;;;;4.50;1.40;;;11.10;92.20;;;;;;5121367;28;20266;-81
2023/03/16 09:59:12;;;;;;;2.27;1.50;;;11.30;90.70;;;;;;5122591;28;20659;-80
2023/03/16 10:01:57;;;;;;;1.40;1.10;;;11.40;86.70;;;;;;5121338;28;20163;-82
2023/03/16 10:04:56;;;;;;;1.83;1.50;;;11.60;89.70;;;;;;5120358;28;20242;-80
2023/03/16 10:07:44;;;;;;;2.23;1.13;;;11.80;85.90;;;;;;5120875;28;20182;-80
2023/03/16 10:10:09;;;;;;;1.23;1.10;;;11.80;83.30;;;;;;5120673;28;20195;-81
2023/03/16 10:12:44;;;;;;;4.40;1.40;;;11.80;86.70;;;;;;5120500;28;20240;-81
2023/03/16 10:15:14;;;;;;;1.40;1.30;;;12.20;85.60;;;;;;5120636;28;20290;-81
2023/03/16 10:17:54;;;;;;;3.23;1.40;;;12.30;88.80;;;;;;5120171;28;20175;-81
2023/03/16 10:20:22;;;;;;;2.13;1.40;;;12.20;84.30;;;;;;5121271;28;20192;-81
2023/03/16 10:22:51;;;;;;;1.50;1.40;;;12.10;86.60;;;;;;5120337;28;20167;-82
2023/03/16 10:25:32;;;;;;;3.13;1.33;;;12.10;81.40;;;;;;5120329;28;20275;-83
2023/03/16 10:27:57;;;;;;;1.50;1.30;;;12.00;79.60;;;;;;5121666;28;20172;-81
2023/03/16 10:30:26;;;;;;;4.40;1.60;;;12.20;79.40;;;;;;5119875;28;20598;-81
2023/03/16 10:32:53;;;;;;;1.70;1.30;;;12.10;78.70;;;;;;5120174;28;20183;-81
2023/03/16 10:35:43;;;;;;;1.60;1.47;;;12.30;76.40;;;;;;5123010;28;20202;-81
2023/03/16 10:38:45;;;;;;;1.80;1.50;;;12.40;79.10;;;;;;5121734;28;20517;-81
2023/03/16 10:41:17;;;;;;;3.17;1.47;;;12.30;79.90;;;;;;5120197;28;20264;-81
2023/03/16 10:43:51;;;;;;;2.37;1.63;;;12.30;81.10;;;;;;5119832;28;20182;-81
2023/03/16 10:46:17;;;;;;;3.13;1.63;;;12.60;86.30;;;;;;5120897;28;20177;-81
2023/03/16 10:48:53;;;;;;;2.70;1.90;;;12.90;78.50;;;;;;5120518;28;20176;-81
2023/03/16 10:51:24;;;;;;;1.60;1.50;;;12.80;78.50;;;;;;5119041;28;20248;-81
2023/03/16 10:53:51;;;;;;;1.80;1.40;;;13.30;79.00;;;;;;5120671;28;20163;-81
2023/03/16 10:56:24;;;;;;;1.50;1.40;;;13.30;74.90;;;;;;5120851;28;20196;-81
2023/03/16 10:58:50;;;;;;;2.00;1.20;;;13.40;79.80;;;;;;5120327;28;20191;-81
2023/03/16 11:01:23;;;;;;;2.23;1.30;;;13.20;71.30;;;;;;5120618;28;20183;-81
2023/03/16 11:03:55;;;;;;;1.83;1.17;;;13.20;78.90;;;;;;5119574;28;20216;-81
2023/03/16 11:06:29;;;;;;;3.30;1.20;;;13.30;78.10;;;;;;5120182;28;20182;-81
2023/03/16 11:09:02;;;;;;;2.47;1.20;;;13.40;72.30;;;;;;5118988;28;20641;-79
2023/03/16 11:11:32;;;;;;;2.40;1.20;;;13.50;71.10;;;;;;5120983;28;20240;-81
2023/03/16 11:14:01;;;;;;;2.97;1.43;;;13.40;72.70;;;;;;5121001;28;20164;-81
2023/03/16 11:16:36;;;;;;;1.53;1.00;;;13.40;66.80;;;;;;5119251;28;20664;-81
2023/03/16 11:19:19;;;;;;;1.60;1.27;;;13.00;69.10;;;;;;5121192;28;20271;-81
2023/03/16 11:22:15;;;;;;;1.90;1.07;;;12.90;71.20;;;;;;5119958;28;20209;-81
2023/03/16 11:24:49;;;;;;;2.13;1.30;;;13.30;67.30;;;;;;5121050;28;20187;-80
2023/03/16 11:27:25;;;;;;;4.73;1.30;;;13.60;69.30;;;;;;5119494;28;20159;-81
2023/03/16 11:30:10;;;;;;;1.30;1.20;;;13.40;69.70;;;;;;5121811;28;20179;-80
2023/03/16 11:32:39;;;;;;;3.30;1.37;;;13.20;67.80;;;;;;5120880;28;20247;-81
2023/03/16 11:35:32;;;;;;;3.67;1.23;;;13.10;68.10;;;;;;5121645;28;20206;-82
2023/03/16 11:38:08;;;;;;;1.50;0.90;;;12.90;66.80;;;;;;5122714;28;20219;-80
2023/03/16 11:40:52;;;;;;;1.37;1.27;;;13.10;72.30;;;;;;5121337;28;20187;-80
2023/03/16 11:43:52;;;;;;;1.40;1.30;;;13.10;68.30;;;;;;5125227;28;20242;-81
2023/03/16 11:46:49;;;;;;;1.90;1.20;;;13.10;69.60;;;;;;5123691;28;20224;-81
2023/03/16 11:49:23;;;;;;;2.77;1.40;;;13.40;66.80;;;;;;5121636;28;20188;-81
2023/03/16 11:52:18;;;;;;;2.77;1.30;;;13.70;68.00;;;;;;5123204;28;20185;-81
2023/03/16 11:55:07;;;;;;;1.83;1.40;;;13.90;69.30;;;;;;5125752;28;20182;-81
2023/03/16 11:57:40;;;;;;;1.43;1.30;;;14.00;67.50;;;;;;5125168;28;20191;-81
2023/03/16 12:00:43;;;;;;;1.60;1.50;;;14.20;68.30;;;;;;5125006;28;20187;-81
2023/03/16 12:03:46;;;;;;;1.40;1.30;;;14.10;66.50;;;;;;5123619;28;20695;-81
2023/03/16 12:06:37;;;;;;;3.37;1.30;;;13.90;67.40;;;;;;5124742;28;20533;-81
2023/03/16 12:09:49;;;;;;;1.30;1.17;;;14.00;66.10;;;;;;5125090;28;20176;-80
2023/03/16 12:12:33;;;;;;;1.80;1.50;;;13.90;64.70;;;;;;5125673;28;20536;-81
2023/03/16 12:15:30;;;;;;;4.80;1.43;;;14.00;66.00;;;;;;5122620;28;20193;-80
2023/03/16 12:18:02;;;;;;;2.20;1.50;;;14.10;69.70;;;;;;5122798;28;20173;-79
2023/03/16 12:20:34;;;;;;;1.73;1.40;;;14.40;66.50;;;;;;5121550;28;20656;-79
2023/03/16 12:23:11;;;;;;;1.60;1.30;;;14.80;64.60;;;;;;5125148;28;20539;-80
2023/03/16 12:25:42;;;;;;;3.60;1.33;;;15.10;67.70;;;;;;5122996;28;20178;-80
2023/03/16 12:28:22;;;;;;;1.43;1.33;;;15.60;64.40;;;;;;5122347;28;20163;-79
2023/03/16 12:31:04;;;;;;;1.60;1.50;;;15.50;67.00;;;;;;5123099;28;20593;-81
2023/03/16 12:33:48;;;;;;;3.40;1.37;;;15.30;64.70;;;;;;5122252;28;20559;-80
2023/03/16 12:36:51;;;;;;;4.83;1.37;;;15.40;63.20;;;;;;5123009;28;20732;-80
2023/03/16 12:39:37;;;;;;;1.73;1.37;;;15.70;61.70;;;;;;5122688;28;20170;-81
2023/03/16 12:42:21;;;;;;;1.60;1.40;;;16.00;60.30;;;;;;5120205;28;20181;-79
2023/03/16 12:45:13;;;;;;;2.13;1.50;;;16.10;61.00;;;;;;5119930;28;20148;-77
2023/03/16 12:47:59;;;;;;;4.13;1.30;;;16.10;61.30;;;;;;5130042;28;20681;-80
2023/03/16 12:50:26;;;;;;;1.93;1.50;;;16.40;63.80;;;;;;5128364;28;20267;-78
2023/03/16 12:52:53;;;;;;;2.10;1.40;;;16.40;59.60;;;;;;5128486;27;20168;-78
2023/03/16 12:55:26;;;;;;;1.97;1.30;;;16.70;59.50;;;;;;5127554;28;20199;-78
2023/03/16 12:58:00;;;;;;;1.83;1.10;;;17.10;57.50;;;;;;5129719;28;20657;-78
2023/03/16 13:00:39;;;;;;;2.20;1.20;;;17.70;59.70;;;;;;5127662;28;20223;-78
2023/03/16 13:03:14;;;;;;;1.97;1.30;;;18.40;57.90;;;;;;5125011;28;20163;-80
2023/03/16 13:05:54;;;;;;;1.30;1.20;;;18.50;55.80;;;;;;5122320;28;20179;-79
2023/03/16 13:08:21;;;;;;;1.43;1.23;;;18.80;54.40;;;;;;5122684;28;20175;-79
2023/03/16 13:11:08;;;;;;;1.87;1.43;;;18.70;54.00;;;;;;5122121;28;20207;-79
2023/03/16 13:13:46;;;;;;;1.40;1.30;;;18.60;52.00;;;;;;5121165;28;20249;-79
2023/03/16 13:16:27;;;;;;;1.83;1.40;;;18.20;53.40;;;;;;5123393;28;20735;-79
2023/03/16 13:18:54;;;;;;;2.00;1.20;;;18.10;54.00;;;;;;5121056;28;20167;-79
2023/03/16 13:21:41;;;;;;;1.83;1.50;;;18.10;53.10;;;;;;5125526;28;20256;-77
2023/03/16 13:24:16;;;;;;;1.57;1.30;;;18.10;54.20;;;;;;5128339;28;20163;-78
2023/03/16 13:26:58;;;;;;;1.57;1.37;;;18.30;53.20;;;;;;5119776;28;20222;-78
2023/03/16 13:29:27;;;;;;;1.97;1.73;;;18.30;52.60;;;;;;5121023;28;20266;-77
2023/03/16 13:31:55;;;;;;;2.37;1.70;;;18.70;55.30;;;;;;5118032;28;20182;-79
2023/03/16 13:34:26;;;;;;;1.43;1.33;;;18.80;53.10;;;;;;5120033;28;20222;-81
2023/03/16 13:36:57;;;;;;;4.47;1.57;;;18.90;51.10;;;;;;5120630;28;20279;-79
2023/03/16 13:39:29;;;;;;;1.70;1.30;;;18.80;53.30;;;;;;5121935;28;20169;-79
2023/03/16 13:42:03;;;;;;;2.10;1.63;;;18.80;51.80;;;;;;5120166;28;20165;-80
2023/03/16 13:44:30;;;;;;;2.60;1.43;;;18.90;52.00;;;;;;5121346;28;20164;-79
2023/03/16 13:47:01;;;;;;;2.03;1.50;;;19.00;49.80;;;;;;5120558;28;20197;-79
2023/03/16 13:49:27;;;;;;;4.50;2.70;;;19.00;50.20;;;;;;5120487;28;20203;-79
2023/03/16 13:51:53;;;;;;;1.57;1.40;;;19.40;50.60;;;;;;5122657;28;20172;-78
2023/03/16 13:54:28;;;;;;;3.70;2.80;;;19.60;50.50;;;;;;5122527;28;20196;-78
2023/03/16 13:57:14;;;;;;;2.07;1.70;;;19.80;49.80;;;;;;5120624;28;20195;-79
2023/03/16 13:59:42;;;;;;;3.03;1.47;;;20.00;48.80;;;;;;5126598;27;20183;-78
2023/03/16 14:02:19;;;;;;;2.50;1.53;;;20.00;49.20;;;;;;5124087;28;20176;-78
2023/03/16 14:04:45;;;;;;;2.23;1.70;;;19.70;48.90;;;;;;5121017;28;20186;-78
2023/03/16 14:07:16;;;;;;;1.40;1.30;;;19.20;50.60;;;;;;5122648;28;20172;-78
2023/03/16 14:09:44;;;;;;;2.43;1.60;;;18.80;50.40;;;;;;5117178;28;20212;-78
2023/03/16 14:12:14;;;;;;;1.40;1.30;;;18.50;52.00;;;;;;5120209;28;20204;-78
2023/03/16 14:14:40;;;;;;;3.17;1.70;;;18.50;50.90;;;;;;5122510;27;20701;-79
2023/03/16 14:17:12;;;;;;;1.60;1.50;;;18.40;51.60;;;;;;5119059;28;20179;-79
2023/03/16 14:19:43;;;;;;;1.93;1.73;;;17.70;52.40;;;;;;5119328;28;20232;-79
2023/03/16 14:22:36;;;;;;;1.83;1.10;;;17.40;51.60;;;;;;5116735;28;20637;-79
2023/03/16 14:25:04;;;;;;;1.70;1.57;;;17.50;52.30;;;;;;5122053;28;20156;-79
2023/03/16 14:27:42;;;;;;;1.53;1.43;;;17.40;52.50;;;;;;5119188;28;20179;-79
2023/03/16 14:30:24;;;;;;;1.50;1.40;;;17.70;52.20;;;;;;5119946;28;20199;-79
2023/03/16 14:33:03;;;;;;;2.83;1.60;;;17.90;51.70;;;;;;5123969;28;20172;-79
2023/03/16 14:35:40;;;;;;;2.83;1.70;;;17.90;52.00;;;;;;5122423;28;20214;-79
2023/03/16 14:38:27;;;;;;;2.53;1.80;;;17.90;52.10;;;;;;5122903;28;20156;-79
2023/03/16 14:40:56;;;;;;;3.03;1.70;;;17.80;50.90;;;;;;5124525;28;20178;-78
2023/03/16 14:43:43;;;;;;;2.83;1.50;;;17.40;52.10;;;;;;5124630;28;20254;-79
2023/03/16 14:46:28;;;;;;;2.70;1.60;;;17.20;52.30;;;;;;5118657;28;20176;-81
2023/03/16 14:49:20;;;;;;;1.97;1.60;;;17.50;52.40;;;;;;5116669;28;20202;-77
2023/03/16 14:51:48;;;;;;;2.40;1.63;;;17.30;52.20;;;;;;5116575;28;20168;-80
2023/03/16 14:54:16;;;;;;;4.87;1.83;;;16.30;52.80;;;;;;5119227;28;20199;-78
2023/03/16 14:56:46;;;;;;;2.63;1.97;;;15.80;54.80;;;;;;5118254;28;20204;-79
2023/03/16 14:59:12;;;;;;;2.77;1.70;;;14.80;55.40;;;;;;5120438;28;20209;-81
2023/03/16 15:01:38;;;;;;;2.13;1.60;;;13.90;57.20;;;;;;5125865;28;20174;-77
2023/03/16 15:04:06;;;;;;;2.23;1.60;;;13.40;58.50;;;;;;5123888;28;20178;-81
2023/03/16 15:06:33;;;;;;;1.77;1.43;;;12.60;59.70;;;;;;5123686;28;20169;-80
2023/03/16 15:09:00;;;;;;;1.77;1.67;;;12.00;60.80;;;;;;5124015;28;20164;-81
2023/03/16 15:11:27;;;;;;;1.60;1.43;;;11.60;63.30;;;;;;5122263;28;20212;-80
2023/03/16 15:14:02;;;;;;;2.00;1.80;;;11.40;64.70;;;;;;5123603;28;20199;-81
2023/03/16 15:16:29;;;;;;;1.70;1.60;;;11.30;63.20;;;;;;5122306;28;20208;-80
2023/03/16 15:18:54;;;;;;;2.00;1.77;;;11.20;63.20;;;;;;5128143;28;20176;-80
2023/03/16 15:21:28;;;;;;;2.63;1.67;;;11.20;64.10;;;;;;5127741;28;20187;-81
2023/03/16 15:23:57;;;;;;;2.30;1.67;;;11.00;65.50;;;;;;5128745;28;20248;-79
2023/03/16 15:26:27;;;;;;;2.07;1.60;;;10.90;65.50;;;;;;5127708;28;20291;-80
2023/03/16 15:28:54;;;;;;;2.33;1.80;;;10.80;66.10;;;;;;5125918;28;20231;-81
2023/03/16 15:31:20;;;;;;;3.53;1.50;;;10.70;64.80;;;;;;5126008;28;20236;-81
2023/03/16 15:33:46;;;;;;;2.00;1.70;;;10.70;66.40;;;;;;5124983;28;20175;-81
2023/03/16 15:36:18;;;;;;;2.23;1.70;;;10.60;65.50;;;;;;5123765;28;20199;-82
2023/03/16 15:38:46;;;;;;;3.70;1.70;;;10.50;66.30;;;;;;5125331;28;20174;-81
2023/03/16 15:41:13;;;;;;;2.63;1.60;;;10.40;66.90;;;;;;5124325;28;20187;-82
2023/03/16 15:43:38;;;;;;;4.77;1.60;;;10.40;66.80;;;;;;5124794;28;20167;-82
2023/03/16 15:46:05;;;;;;;2.10;1.90;;;10.40;67.90;;;;;;5131739;28;20177;-79
2023/03/16 15:48:31;;;;;;;3.83;1.50;;;10.40;68.80;;;;;;5136864;28;20601;-79
2023/03/16 15:51:03;;;;;;;2.70;2.27;;;10.20;67.80;;;;;;5137927;28;20191;-79
2023/03/16 15:53:37;;;;;;;2.87;1.70;;;10.10;68.70;;;;;;5137956;27;20176;-79
2023/03/16 15:56:12;;;;;;;4.17;2.00;;;10.10;70.40;;;;;;5139218;28;20234;-80
2023/03/16 15:58:41;;;;;;;4.57;2.17;;;10.00;70.00;;;;;;5140967;28;20210;-80
2023/03/16 16:01:07;;;;;;;2.33;1.87;;;9.90;72.50;;;;;;5139441;28;20195;-79
2023/03/16 16:03:33;;;;;;;2.57;2.13;;;9.80;71.50;;;;;;5138469;28;20170;-80
2023/03/16 16:05:59;;;;;;;3.13;2.20;;;9.80;72.00;;;;;;5139190;28;20179;-79
2023/03/16 16:08:25;;;;;;;3.53;2.40;;;9.70;72.30;;;;;;5138100;28;20171;-79
2023/03/16 16:10:52;;;;;;;3.90;2.20;;;9.70;71.80;;;;;;5136773;28;20183;-79
2023/03/16 16:13:29;;;;;;;2.33;1.83;;;9.70;73.50;;;;;;5135369;28;20179;-79
2023/03/16 16:15:58;;;;;;;2.83;2.00;;;9.70;74.20;;;;;;5136170;28;20192;-79
2023/03/16 16:18:33;;;;;;;4.87;2.03;;;9.60;75.20;;;;;;5127281;28;20263;-80
2023/03/16 16:21:01;;;;;;;3.47;2.33;;;9.70;75.50;;;;;;5128688;28;20199;-80
2023/03/16 16:23:28;;;;;;;5.40;2.50;;;9.60;76.20;;;;;;5131275;28;20174;-80
2023/03/16 16:25:56;;;;;;;3.50;2.40;;;9.70;76.30;;;;;;5139140;28;20182;-79
2023/03/16 16:28:28;;;;;;;3.70;2.50;;;9.60;76.60;;;;;;5136482;28;20203;-80
2023/03/16 16:30:54;;;;;;;2.57;1.87;;;9.50;78.00;;;;;;5123324;28;20207;-81
2023/03/16 16:33:32;;;;;;;6.00;2.97;;;9.40;77.70;;;;;;5124090;28;20179;-85
2023/03/16 16:36:00;;;;;;;2.03;1.77;;;9.30;79.10;;;;;;5124023;28;20555;-79
2023/03/16 16:38:26;;;;;;;3.03;2.03;;;9.40;79.30;;;;;;5124831;28;20247;-81
2023/03/16 16:40:53;;;;;;;2.20;1.90;;;9.30;79.00;;;;;;5123350;28;20210;-81
2023/03/16 16:43:42;;;;;;;3.33;2.33;;;9.10;79.60;;;;;;5131349;28;20179;-80
2023/03/16 16:46:15;;;;;;;2.87;2.10;;;9.10;79.90;;;;;;5121868;28;20168;-79
2023/03/16 16:48:47;;;;;;;2.90;2.23;;;9.00;81.40;;;;;;5123180;28;20180;-79
2023/03/16 16:51:18;;;;;;;4.73;2.40;;;8.90;82.10;;;;;;5124151;28;20194;-79
2023/03/16 16:53:45;;;;;;;2.63;2.20;;;8.80;82.60;;;;;;5128194;28;20568;-81
